NATIONAL KEY DEER NWR FL US current weather conditions

sailwx.info

Wind from 192 at 7 knots gusting 13

Air temperature 30.6° C
Dewpoint 23.2° C

Last reported at 2015-Apr-25 15:38 UTC.
Time now 2015-Apr-25 16:10 UTC

Location: N 24°43' W 081°23'.
View on Google Maps.

See reports from other nearby stations

  
Tides and Currents Weather Stations Pressure Air Temp Water Temp Dewpoint Dewpoint Depression Visibility Wind Speed Wind Dir Waves Ship Positions
date/time (UTC)wind fromknots sea level pressurealtimeterstation pressurevisibilityair tempwater tempwave heightnotes
2015-Apr-25 15:38 192 7 gusting 13 30.6
2015-Apr-25 14:38 203 6 gusting 12 30.6
2015-Apr-25 13:38 200 6 gusting 10 29.4
2015-Apr-25 12:38 198 6 gusting 8 28.3
2015-Apr-25 11:38 213 2 gusting 5 26.1
2015-Apr-25 10:38 171 0 gusting 1 23.3
2015-Apr-25 09:38 249 0 gusting 1 23.9
2015-Apr-25 08:38 056 1 gusting 2 25.6
2015-Apr-25 07:38 030 1 gusting 5 26.7
2015-Apr-25 06:38 009 3 gusting 6 26.7
2015-Apr-25 05:38 002 3 gusting 7 27.2
2015-Apr-25 04:38 353 3 gusting 7 26.1
2015-Apr-25 03:38 351 4 gusting 7 26.7
2015-Apr-25 02:38 354 4 gusting 10 26.7
2015-Apr-25 01:38 351 5 gusting 9 26.7
2015-Apr-25 00:38 345 5 gusting 8 27.2
2015-Apr-24 23:38 332 6 gusting 10 27.8
2015-Apr-24 22:38 337 6 gusting 13 29.4
2015-Apr-24 21:38 338 6 gusting 12 30.0
2015-Apr-24 20:38 348 6 gusting 11 31.1
2015-Apr-24 19:38 002 6 gusting 11 31.1
2015-Apr-24 18:38 008 6 gusting 11 31.7
2015-Apr-24 17:38 011 6 gusting 12 31.1
2015-Apr-24 16:38 31.7
2015-Apr-24 15:38 336 6 gusting 11 30.6
2015-Apr-24 14:38 327 4 gusting 8 31.1
2015-Apr-24 13:38 280 3 gusting 6 30.6
2015-Apr-24 12:38 316 3 gusting 4 28.3
2015-Apr-24 11:38 204 0 gusting 1 23.9
2015-Apr-24 10:38 22.8
2015-Apr-24 09:38 176 1 gusting 1 23.3
2015-Apr-24 08:38 166 1 gusting 1 23.3
2015-Apr-24 07:38 23.9
2015-Apr-24 06:38 112 0 gusting 3 25.6
2015-Apr-24 05:38 084 1 gusting 4 26.7
2015-Apr-24 04:38 008 3 gusting 6 26.7
2015-Apr-24 03:38 005 4 gusting 6 26.7
2015-Apr-24 02:38 355 3 gusting 5 26.7
2015-Apr-24 01:38 357 3 gusting 7 26.7
2015-Apr-24 00:38 349 2 gusting 8 27.2
2015-Apr-23 23:38 346 6 gusting 9 28.3
2015-Apr-23 22:38 326 6 gusting 9 30.6
2015-Apr-23 21:38 235 3 gusting 7 30.0
2015-Apr-23 20:38 239 4 gusting 8 31.7
2015-Apr-23 19:38 221 5 gusting 9 31.7
2015-Apr-23 18:38 204 5 gusting 10 32.2
2015-Apr-23 17:38 199 6 gusting 12 31.1
2015-Apr-23 16:38 187 6 gusting 12 30.6